createdAt,value
2018-12-26T00:03:43.082Z,72.24
2018-12-26T00:09:06.117Z,72.32
2018-12-26T00:14:28.450Z,71.85
2018-12-26T00:19:50.689Z,71.69
2018-12-26T00:25:13.094Z,71.45
2018-12-26T00:30:35.569Z,71.07
2018-12-26T00:35:38.402Z,71.13
2018-12-26T00:41:00.752Z,70.88
2018-12-26T00:46:15.739Z,71.04
2018-12-26T00:51:38.036Z,70.86
2018-12-26T00:57:00.356Z,70.80
2018-12-26T01:02:22.643Z,71.00
2018-12-26T01:07:44.940Z,70.90
2018-12-26T01:13:07.234Z,70.83
2018-12-26T01:18:29.563Z,70.80
2018-12-26T01:23:51.851Z,70.64
2018-12-26T01:29:14.171Z,70.72
2018-12-26T01:34:36.458Z,70.67
2018-12-26T01:39:58.797Z,70.73
2018-12-26T01:45:01.691Z,70.67
2018-12-26T01:50:04.730Z,70.54
2018-12-26T01:55:27.039Z,70.67
2018-12-26T02:00:49.337Z,70.61
2018-12-26T02:06:11.626Z,70.78
2018-12-26T02:11:33.940Z,71.10
2018-12-26T02:16:36.782Z,71.38
2018-12-26T02:21:59.072Z,71.37
2018-12-26T02:27:21.359Z,71.33
2018-12-26T02:32:43.704Z,71.38
2018-12-26T02:37:46.468Z,71.10
2018-12-26T02:42:49.166Z,71.36
2018-12-26T02:48:04.805Z,71.45
2018-12-26T02:53:07.495Z,71.58
2018-12-26T02:58:30.640Z,71.97
2018-12-26T03:03:45.744Z,71.93
2018-12-26T03:09:08.052Z,72.52
2018-12-26T03:14:10.864Z,72.50
2018-12-26T03:19:33.171Z,72.08
2018-12-26T03:24:35.865Z,71.85
2018-12-26T03:29:58.200Z,71.92
2018-12-26T03:35:20.472Z,71.85
2018-12-26T03:40:42.764Z,71.89
2018-12-26T03:45:58.488Z,71.64
2018-12-26T03:51:01.425Z,71.72
2018-12-26T03:56:04.333Z,71.66
2018-12-26T04:01:07.020Z,71.49
2018-12-26T04:06:29.314Z,71.95
2018-12-26T04:11:51.597Z,72.19
2018-12-26T04:17:14.114Z,72.52
2018-12-26T04:22:17.148Z,72.34
2018-12-26T04:27:39.454Z,72.56
2018-12-26T04:33:01.748Z,72.69
2018-12-26T04:38:24.047Z,72.83
2018-12-26T04:43:46.381Z,73.26
2018-12-26T04:49:08.707Z,73.70
2018-12-26T04:54:30.981Z,74.04
2018-12-26T04:59:53.290Z,74.69
2018-12-26T05:05:15.600Z,75.77
2018-12-26T05:10:38.012Z,77.26
2018-12-26T05:16:00.281Z,78.11
2018-12-26T05:21:22.574Z,79.00
2018-12-26T05:26:44.892Z,79.92
2018-12-26T05:32:07.227Z,79.85
2018-12-26T05:37:29.515Z,80.24
2018-12-26T05:42:32.348Z,80.98
2018-12-26T05:47:48.199Z,81.02
2018-12-26T05:53:10.497Z,81.43
2018-12-26T05:58:32.797Z,81.37
2018-12-26T06:03:55.010Z,81.33
2018-12-26T06:09:17.310Z,81.38
2018-12-26T06:14:20.101Z,81.52
2018-12-26T06:19:42.402Z,81.34
2018-12-26T06:25:04.699Z,81.16
2018-12-26T06:30:07.523Z,81.13
2018-12-26T06:35:29.854Z,80.92
2018-12-26T06:40:52.187Z,80.80
2018-12-26T06:46:09.791Z,80.92
2018-12-26T06:51:32.009Z,81.24
2018-12-26T06:56:54.261Z,81.44
2018-12-26T07:02:16.581Z,81.72
2018-12-26T07:07:38.974Z,82.14
2018-12-26T07:13:01.305Z,81.78
2018-12-26T07:18:24.454Z,81.85
2018-12-26T07:23:46.782Z,81.71
2018-12-26T07:29:09.093Z,82.05
2018-12-26T07:34:31.468Z,82.13
2018-12-26T07:39:53.837Z,82.27
2018-12-26T07:45:09.241Z,82.71
2018-12-26T07:50:31.524Z,82.64
2018-12-26T07:55:53.826Z,82.41
2018-12-26T08:01:16.152Z,82.55
2018-12-26T08:06:38.422Z,82.29
2018-12-26T08:12:00.766Z,82.42
2018-12-26T08:17:23.087Z,82.37
2018-12-26T08:22:45.429Z,82.32
2018-12-26T08:28:07.731Z,82.65
2018-12-26T08:33:30.106Z,82.70
2018-12-26T08:38:52.439Z,82.83
2018-12-26T08:44:07.407Z,82.38
2018-12-26T08:49:10.212Z,82.13
2018-12-26T08:54:32.555Z,82.03
2018-12-26T08:59:54.889Z,82.04
2018-12-26T09:05:17.160Z,81.75
2018-12-26T09:10:39.503Z,81.71
2018-12-26T09:16:01.802Z,82.13
2018-12-26T09:21:23.979Z,81.85
2018-12-26T09:26:46.527Z,81.85
2018-12-26T09:32:08.877Z,82.01
2018-12-26T09:37:32.171Z,82.17
2018-12-26T09:42:54.622Z,82.27
2018-12-26T09:48:10.466Z,82.51
2018-12-26T09:53:32.883Z,82.32
2018-12-26T09:59:15.739Z,82.07
2018-12-26T10:04:20.734Z,82.17
2018-12-26T10:09:44.388Z,82.18
2018-12-26T10:15:08.344Z,82.20
2018-12-26T10:20:31.522Z,82.17
2018-12-26T10:25:55.163Z,82.26
2018-12-26T10:31:18.031Z,82.31
2018-12-26T10:36:43.933Z,82.23
2018-12-26T10:42:10.260Z,82.18
2018-12-26T10:47:32.436Z,82.21
2018-12-26T10:52:38.176Z,82.36
2018-12-26T10:58:04.167Z,82.67
2018-12-26T11:03:13.665Z,82.67
2018-12-26T11:08:18.452Z,82.71
2018-12-26T11:13:41.263Z,82.67
2018-12-26T11:19:04.631Z,82.53
2018-12-26T11:24:49.205Z,82.09
2018-12-26T11:35:44.315Z,82.47
2018-12-26T11:41:08.413Z,82.28
2018-12-26T11:46:24.529Z,82.65
2018-12-26T11:51:48.208Z,83.12
2018-12-26T11:56:52.384Z,82.67
2018-12-26T12:02:20.757Z,82.58
2018-12-26T12:07:43.152Z,82.51
2018-12-26T12:13:06.811Z,82.34
2018-12-26T12:24:45.768Z,82.19
2018-12-26T12:30:28.436Z,82.15
2018-12-26T12:35:51.871Z,82.46
2018-12-26T12:41:15.389Z,82.25
2018-12-26T12:46:32.586Z,81.90
2018-12-26T12:51:37.012Z,82.16
2018-12-26T12:56:53.297Z,82.58
2018-12-26T13:01:58.918Z,82.45
2018-12-26T13:07:22.507Z,82.39
2018-12-26T13:12:46.333Z,82.33
2018-12-26T13:18:09.690Z,82.30
2018-12-26T13:23:14.149Z,82.48
2018-12-26T13:28:37.860Z,82.57
2018-12-26T13:34:01.109Z,82.83
2018-12-26T13:44:37.326Z,82.95
2018-12-26T13:50:21.545Z,83.08
2018-12-26T13:55:47.044Z,83.19
2018-12-26T14:01:11.948Z,83.20
2018-12-26T14:06:36.965Z,83.27
2018-12-26T14:11:59.409Z,83.24
2018-12-26T14:17:22.581Z,82.85
2018-12-26T14:22:44.989Z,82.83
2018-12-26T14:28:07.276Z,82.71
2018-12-26T14:33:11.392Z,82.65
2018-12-26T14:38:35.178Z,82.69
2018-12-26T14:44:01.247Z,82.63
2018-12-26T14:49:09.256Z,82.73
2018-12-26T14:54:33.519Z,82.91
2018-12-26T14:59:38.417Z,82.80
2018-12-26T15:04:43.611Z,82.74
2018-12-26T15:10:07.710Z,82.58
2018-12-26T15:15:31.000Z,82.52
2018-12-26T15:20:54.706Z,82.72
2018-12-26T15:25:59.374Z,82.53
2018-12-26T15:31:03.856Z,82.44
2018-12-26T15:36:07.378Z,82.54
2018-12-26T15:41:12.139Z,82.41
2018-12-26T15:46:28.427Z,82.55
2018-12-26T15:51:52.214Z,82.41
2018-12-26T15:57:16.284Z,82.55
2018-12-26T16:02:39.173Z,82.52
2018-12-26T16:07:44.092Z,82.17
2018-12-26T16:13:07.221Z,82.51
2018-12-26T16:18:31.433Z,82.44
2018-12-26T16:23:53.815Z,82.66
2018-12-26T16:28:56.666Z,82.66
2018-12-26T16:33:59.655Z,82.61
2018-12-26T16:39:03.619Z,82.99
2018-12-26T16:44:19.295Z,83.17
2018-12-26T16:49:41.687Z,83.45
2018-12-26T16:55:04.577Z,83.59
2018-12-26T17:00:26.920Z,83.47
2018-12-26T17:05:29.893Z,83.87
2018-12-26T17:10:33.089Z,84.13
2018-12-26T17:15:55.548Z,84.38
2018-12-26T17:21:18.267Z,84.48
2018-12-26T17:26:41.708Z,84.62
2018-12-26T17:31:44.800Z,84.47
2018-12-26T17:37:07.553Z,84.63
2018-12-26T17:42:29.861Z,85.01
2018-12-26T17:47:44.974Z,84.98
2018-12-26T17:53:09.792Z,84.88
2018-12-26T17:58:12.804Z,84.69
2018-12-26T18:03:35.235Z,84.96
2018-12-26T18:08:57.552Z,84.95
2018-12-26T18:14:19.901Z,85.16
2018-12-26T18:19:42.460Z,84.98
2018-12-26T18:25:06.745Z,84.75
2018-12-26T18:30:29.086Z,84.70
2018-12-26T18:35:51.480Z,84.70
2018-12-26T18:40:54.371Z,84.81
2018-12-26T18:46:10.289Z,84.60
2018-12-26T18:51:32.718Z,84.62
2018-12-26T18:56:55.106Z,85.01
2018-12-26T19:02:17.508Z,84.94
2018-12-26T19:07:39.798Z,85.00
2018-12-26T19:13:02.211Z,84.73
2018-12-26T19:18:24.629Z,84.81
2018-12-26T19:23:47.065Z,84.73
2018-12-26T19:29:09.465Z,84.50
2018-12-26T19:34:31.784Z,84.55
2018-12-26T19:39:54.103Z,84.96
2018-12-26T19:45:09.223Z,85.02
2018-12-26T19:50:31.693Z,84.76
2018-12-26T19:55:54.035Z,84.71
2018-12-26T20:01:16.367Z,84.52
2018-12-26T20:06:38.787Z,84.62
2018-12-26T20:12:04.838Z,84.91
2018-12-26T20:17:07.759Z,84.71
2018-12-26T20:22:30.078Z,84.94
2018-12-26T20:27:32.906Z,84.65
2018-12-26T20:32:55.303Z,84.72
2018-12-26T20:37:58.156Z,84.88
2018-12-26T20:43:20.461Z,84.88
2018-12-26T20:48:35.839Z,84.71
2018-12-26T20:53:58.170Z,84.77
2018-12-26T20:59:20.491Z,84.45
2018-12-26T21:04:42.817Z,84.37
2018-12-26T21:09:45.646Z,84.67
2018-12-26T21:15:07.997Z,84.40
2018-12-26T21:20:30.311Z,84.15
2018-12-26T21:25:52.607Z,83.90
2018-12-26T21:31:14.893Z,83.95
2018-12-26T21:36:17.814Z,83.64
2018-12-26T21:41:20.641Z,83.71
2018-12-26T21:46:35.910Z,83.59
2018-12-26T21:51:38.709Z,83.43
2018-12-26T21:56:41.581Z,83.40
2018-12-26T22:01:44.501Z,83.32
2018-12-26T22:07:06.818Z,83.44
2018-12-26T22:12:29.205Z,83.50
2018-12-26T22:17:51.491Z,83.33
2018-12-26T22:23:13.806Z,83.81
2018-12-26T22:28:16.617Z,83.43
2018-12-26T22:33:38.933Z,83.59
2018-12-26T22:39:01.223Z,83.67
2018-12-26T22:44:16.420Z,83.61
2018-12-26T22:49:38.717Z,83.52
2018-12-26T22:55:01.015Z,83.03
2018-12-26T23:00:43.059Z,83.14
2018-12-26T23:05:45.865Z,82.88
2018-12-26T23:11:08.176Z,82.62
2018-12-26T23:16:30.478Z,82.41
2018-12-26T23:21:52.769Z,81.81
2018-12-26T23:27:15.045Z,81.80
2018-12-26T23:32:37.357Z,81.74
2018-12-26T23:37:40.143Z,81.61
2018-12-26T23:43:02.737Z,81.53
2018-12-26T23:48:18.285Z,81.22
2018-12-26T23:53:43.765Z,80.99
2018-12-26T23:59:06.198Z,80.71
